X  Sluiten METAR luchtvaart weer gegevens      EHGG Eelde
Temperatuur
17°C Temperatuur
7°C Dauwpunt
52% Vochtigheid



Wind
21 KM/U
13 MPH
6 M/S
11 KTS



70°
ONO
Huidig weer

Helder Helder
Luchtdruk 1024.92 (hPa) - 30.27 (inHg)
Zicht 6.2 (mijl) - 10 (km)
Vliegveld
Vliegveld code EHGG

Locatie : Eelde
Afstand: 47 (km)

Metar:
EHGG 010755Z AUTO 07011KT 040V100 9999 NCD 17/07 Q1025 NOSIG

Tijd: 01-06-2020 09:55 CEST